Delhi, Canada
Current Conditions -  °F | °C
As of 5:00 AM on Friday 31 Oct 2014 (Local Time) from CYXU Reporting Station
Rain Showers Rain Showers  
Wind Chill: 38°   Ceiling: 6200
Heat Index: 41°   Visibility: 15mi
Dew Point: 39°   Wind: 5mph
Humidity: 93%   Direction: 140°SE
Pressure: 29.93"   Gusts: NA
Location:  42.85°N, 80.49°W
Report Text: CYXU 310900Z 14004KT 15SM -SHRA FEW030 OVC062 05/04 A2993 RMK SC2SC6 TCU ASOCTD SLP142
Loading
Personal Weather Stations






























Interactive Weather Map
Tropical Storm Tracking
New forecast layout! Learn more

10-Day Weather Forecast

Advertisements
Track Severe Weather on mobile